sensor_id;sensor_type;location;lat;lon;timestamp;pressure;altitude;pressure_sealevel;temperature;humidity
9905;BME280;4991;43.566;27.820;2022-10-16T00:01:25;99591.31;;;8.00;100.00
9905;BME280;4991;43.566;27.820;2022-10-16T00:03:51;99587.50;;;8.01;100.00
9905;BME280;4991;43.566;27.820;2022-10-16T00:06:19;99592.91;;;7.91;100.00
9905;BME280;4991;43.566;27.820;2022-10-16T00:08:45;99594.28;;;7.94;100.00
9905;BME280;4991;43.566;27.820;2022-10-16T00:11:18;99590.44;;;7.89;100.00
9905;BME280;4991;43.566;27.820;2022-10-16T00:13:45;99591.00;;;7.92;100.00
9905;BME280;4991;43.566;27.820;2022-10-16T00:16:12;99595.84;;;7.84;100.00
9905;BME280;4991;43.566;27.820;2022-10-16T00:18:39;99598.31;;;7.86;100.00
9905;BME280;4991;43.566;27.820;2022-10-16T00:21:11;99594.81;;;7.85;100.00
9905;BME280;4991;43.566;27.820;2022-10-16T00:23:37;99603.72;;;7.86;100.00
9905;BME280;4991;43.566;27.820;2022-10-16T00:26:05;99602.66;;;7.87;100.00
9905;BME280;4991;43.566;27.820;2022-10-16T00:28:32;99599.38;;;7.80;100.00
9905;BME280;4991;43.566;27.820;2022-10-16T00:30:58;99600.19;;;7.80;100.00
9905;BME280;4991;43.566;27.820;2022-10-16T00:33:24;99598.25;;;7.76;100.00
9905;BME280;4991;43.566;27.820;2022-10-16T00:35:49;99599.91;;;7.77;100.00
9905;BME280;4991;43.566;27.820;2022-10-16T00:38:16;99607.50;;;7.75;100.00
9905;BME280;4991;43.566;27.820;2022-10-16T00:40:41;99613.16;;;7.68;100.00
9905;BME280;4991;43.566;27.820;2022-10-16T00:43:32;99611.25;;;7.64;100.00
9905;BME280;4991;43.566;27.820;2022-10-16T00:45:59;99606.84;;;7.53;100.00
9905;BME280;4991;43.566;27.820;2022-10-16T00:48:25;99610.38;;;7.53;100.00
9905;BME280;4991;43.566;27.820;2022-10-16T00:50:51;99602.78;;;7.50;100.00
9905;BME280;4991;43.566;27.820;2022-10-16T00:53:17;99606.31;;;7.51;100.00
9905;BME280;4991;43.566;27.820;2022-10-16T00:55:43;99607.63;;;7.43;100.00
9905;BME280;4991;43.566;27.820;2022-10-16T00:58:09;99604.91;;;7.43;100.00
9905;BME280;4991;43.566;27.820;2022-10-16T01:00:35;99607.06;;;7.41;100.00
9905;BME280;4991;43.566;27.820;2022-10-16T01:03:02;99617.38;;;7.39;100.00
9905;BME280;4991;43.566;27.820;2022-10-16T01:05:49;99612.19;;;7.33;100.00
9905;BME280;4991;43.566;27.820;2022-10-16T01:08:27;99622.19;;;7.27;100.00
9905;BME280;4991;43.566;27.820;2022-10-16T01:11:00;99628.41;;;7.28;100.00
9905;BME280;4991;43.566;27.820;2022-10-16T01:13:38;99628.91;;;7.25;100.00
9905;BME280;4991;43.566;27.820;2022-10-16T01:18:50;99631.63;;;7.25;100.00
9905;BME280;4991;43.566;27.820;2022-10-16T01:21:33;99632.41;;;7.20;100.00
9905;BME280;4991;43.566;27.820;2022-10-16T01:24:11;99642.66;;;7.13;100.00
9905;BME280;4991;43.566;27.820;2022-10-16T01:26:52;99645.03;;;7.05;100.00
9905;BME280;4991;43.566;27.820;2022-10-16T01:29:21;99636.91;;;7.05;100.00
9905;BME280;4991;43.566;27.820;2022-10-16T01:31:54;99631.25;;;7.06;100.00
9905;BME280;4991;43.566;27.820;2022-10-16T01:34:25;99641.22;;;7.01;100.00
9905;BME280;4991;43.566;27.820;2022-10-16T01:36:58;99644.47;;;6.98;100.00
9905;BME280;4991;43.566;27.820;2022-10-16T01:39:29;99654.44;;;6.92;100.00
9905;BME280;4991;43.566;27.820;2022-10-16T01:42:03;99660.41;;;6.94;100.00
9905;BME280;4991;43.566;27.820;2022-10-16T01:44:31;99663.00;;;6.79;100.00
9905;BME280;4991;43.566;27.820;2022-10-16T01:46:58;99656.78;;;6.84;100.00
9905;BME280;4991;43.566;27.820;2022-10-16T01:49:27;99655.41;;;6.76;100.00
9905;BME280;4991;43.566;27.820;2022-10-16T01:51:58;99659.19;;;6.80;100.00
9905;BME280;4991;43.566;27.820;2022-10-16T01:54:30;99660.75;;;6.71;100.00
9905;BME280;4991;43.566;27.820;2022-10-16T01:56:58;99669.50;;;6.78;100.00
9905;BME280;4991;43.566;27.820;2022-10-16T01:59:26;99660.25;;;6.74;100.00
9905;BME280;4991;43.566;27.820;2022-10-16T02:01:58;99659.94;;;6.71;100.00
9905;BME280;4991;43.566;27.820;2022-10-16T02:04:31;99666.47;;;6.75;100.00
9905;BME280;4991;43.566;27.820;2022-10-16T02:06:58;99661.19;;;6.58;100.00
9905;BME280;4991;43.566;27.820;2022-10-16T02:09:24;99667.97;;;6.61;100.00
9905;BME280;4991;43.566;27.820;2022-10-16T02:11:52;99673.94;;;6.63;100.00
9905;BME280;4991;43.566;27.820;2022-10-16T02:14:19;99672.56;;;6.60;100.00
9905;BME280;4991;43.566;27.820;2022-10-16T02:16:47;99674.69;;;6.53;100.00
9905;BME280;4991;43.566;27.820;2022-10-16T02:19:14;99672.41;;;6.45;100.00
9905;BME280;4991;43.566;27.820;2022-10-16T02:21:44;99677.03;;;6.44;100.00
9905;BME280;4991;43.566;27.820;2022-10-16T02:24:27;99677.28;;;6.43;100.00
9905;BME280;4991;43.566;27.820;2022-10-16T02:29:50;99690.59;;;6.49;100.00
9905;BME280;4991;43.566;27.820;2022-10-16T02:32:20;99683.44;;;6.38;100.00
9905;BME280;4991;43.566;27.820;2022-10-16T02:34:49;99687.47;;;6.36;100.00
9905;BME280;4991;43.566;27.820;2022-10-16T02:37:17;99687.94;;;6.28;100.00
9905;BME280;4991;43.566;27.820;2022-10-16T02:39:43;99683.31;;;6.28;100.00
9905;BME280;4991;43.566;27.820;2022-10-16T02:42:13;99683.31;;;6.28;100.00
9905;BME280;4991;43.566;27.820;2022-10-16T02:44:39;99689.25;;;6.25;100.00
9905;BME280;4991;43.566;27.820;2022-10-16T02:47:06;99689.44;;;6.19;100.00
9905;BME280;4991;43.566;27.820;2022-10-16T02:49:31;99684.22;;;6.12;100.00
9905;BME280;4991;43.566;27.820;2022-10-16T02:51:57;99686.69;;;6.14;100.00
9905;BME280;4991;43.566;27.820;2022-10-16T02:54:23;99689.69;;;6.17;100.00
9905;BME280;4991;43.566;27.820;2022-10-16T02:56:49;99699.53;;;6.23;100.00
9905;BME280;4991;43.566;27.820;2022-10-16T02:59:15;99688.72;;;6.28;100.00
9905;BME280;4991;43.566;27.820;2022-10-16T03:01:41;99695.75;;;6.24;100.00
9905;BME280;4991;43.566;27.820;2022-10-16T03:04:07;99690.22;;;6.14;100.00
9905;BME280;4991;43.566;27.820;2022-10-16T03:06:33;99695.56;;;6.09;100.00
9905;BME280;4991;43.566;27.820;2022-10-16T03:08:59;99694.47;;;6.10;100.00
9905;BME280;4991;43.566;27.820;2022-10-16T03:11:25;99699.03;;;6.05;100.00
9905;BME280;4991;43.566;27.820;2022-10-16T03:13:51;99697.31;;;5.99;100.00
9905;BME280;4991;43.566;27.820;2022-10-16T03:16:17;99692.72;;;5.99;100.00
9905;BME280;4991;43.566;27.820;2022-10-16T03:18:43;99687.06;;;6.01;100.00
9905;BME280;4991;43.566;27.820;2022-10-16T03:21:08;99698.16;;;5.99;100.00
9905;BME280;4991;43.566;27.820;2022-10-16T03:23:34;99700.53;;;5.96;100.00
9905;BME280;4991;43.566;27.820;2022-10-16T03:26:00;99697.75;;;5.91;100.00
9905;BME280;4991;43.566;27.820;2022-10-16T03:28:25;99701.56;;;5.90;100.00
9905;BME280;4991;43.566;27.820;2022-10-16T03:30:51;99696.06;;;5.85;100.00
9905;BME280;4991;43.566;27.820;2022-10-16T03:33:17;99697.44;;;5.87;100.00
9905;BME280;4991;43.566;27.820;2022-10-16T03:35:42;99697.59;;;5.81;100.00
9905;BME280;4991;43.566;27.820;2022-10-16T03:38:08;99702.44;;;5.79;100.00
9905;BME280;4991;43.566;27.820;2022-10-16T03:40:34;99701.06;;;5.76;100.00
9905;BME280;4991;43.566;27.820;2022-10-16T03:42:59;99699.91;;;5.72;100.00
9905;BME280;4991;43.566;27.820;2022-10-16T03:45:25;99708.72;;;5.63;100.00
9905;BME280;4991;43.566;27.820;2022-10-16T03:47:51;99716.16;;;5.56;100.00
9905;BME280;4991;43.566;27.820;2022-10-16T03:50:17;99703.81;;;5.60;100.00
9905;BME280;4991;43.566;27.820;2022-10-16T03:52:42;99706.78;;;5.58;100.00
9905;BME280;4991;43.566;27.820;2022-10-16T03:55:08;99707.59;;;5.59;100.00
9905;BME280;4991;43.566;27.820;2022-10-16T03:57:34;99710.38;;;5.64;100.00
9905;BME280;4991;43.566;27.820;2022-10-16T03:59:59;99713.47;;;5.56;100.00
9905;BME280;4991;43.566;27.820;2022-10-16T04:02:25;99718.06;;;5.55;100.00
9905;BME280;4991;43.566;27.820;2022-10-16T04:04:51;99711.34;;;5.58;100.00
9905;BME280;4991;43.566;27.820;2022-10-16T04:07:16;99721.31;;;5.57;100.00
9905;BME280;4991;43.566;27.820;2022-10-16T04:09:42;99721.56;;;5.56;100.00
9905;BME280;4991;43.566;27.820;2022-10-16T04:12:08;99721.56;;;5.56;100.00
9905;BME280;4991;43.566;27.820;2022-10-16T04:14:33;99724.84;;;5.58;100.00
9905;BME280;4991;43.566;27.820;2022-10-16T04:16:59;99726.66;;;5.52;100.00
9905;BME280;4991;43.566;27.820;2022-10-16T04:19:24;99724.47;;;5.49;100.00
9905;BME280;4991;43.566;27.820;2022-10-16T04:21:50;99726.03;;;5.45;100.00
9905;BME280;4991;43.566;27.820;2022-10-16T04:24:16;99723.84;;;5.42;100.00
9905;BME280;4991;43.566;27.820;2022-10-16T04:26:41;99725.28;;;5.50;100.00
9905;BME280;4991;43.566;27.820;2022-10-16T04:29:07;99722.84;;;5.48;100.00
9905;BME280;4991;43.566;27.820;2022-10-16T04:31:33;99718.56;;;5.52;100.00
9905;BME280;4991;43.566;27.820;2022-10-16T04:33:59;99715.56;;;5.49;100.00
9905;BME280;4991;43.566;27.820;2022-10-16T04:36:25;99716.94;;;5.51;100.00
9905;BME280;4991;43.566;27.820;2022-10-16T04:38:50;99716.75;;;5.58;100.00
9905;BME280;4991;43.566;27.820;2022-10-16T04:41:16;99710.69;;;5.51;100.00
9905;BME280;4991;43.566;27.820;2022-10-16T04:43:41;99726.66;;;5.52;100.00
9905;BME280;4991;43.566;27.820;2022-10-16T04:46:07;99720.47;;;5.52;100.00
9905;BME280;4991;43.566;27.820;2022-10-16T04:48:33;99726.19;;;5.55;100.00
9905;BME280;4991;43.566;27.820;2022-10-16T04:51:00;99721.75;;;5.49;100.00
9905;BME280;4991;43.566;27.820;2022-10-16T04:53:26;99724.53;;;5.54;100.00
9905;BME280;4991;43.566;27.820;2022-10-16T04:55:51;99730.00;;;5.59;100.00
9905;BME280;4991;43.566;27.820;2022-10-16T04:58:17;99731.59;;;5.55;100.00
9905;BME280;4991;43.566;27.820;2022-10-16T05:00:44;99731.91;;;5.59;100.00
9905;BME280;4991;43.566;27.820;2022-10-16T05:03:09;99734.63;;;5.59;100.00
9905;BME280;4991;43.566;27.820;2022-10-16T05:05:36;99731.72;;;5.65;100.00
9905;BME280;4991;43.566;27.820;2022-10-16T05:08:02;99735.63;;;5.74;100.00
9905;BME280;4991;43.566;27.820;2022-10-16T05:10:28;99741.09;;;5.79;100.00
9905;BME280;4991;43.566;27.820;2022-10-16T05:12:53;99743.22;;;5.77;100.00
9905;BME280;4991;43.566;27.820;2022-10-16T05:15:19;99755.28;;;5.86;100.00
9905;BME280;4991;43.566;27.820;2022-10-16T05:17:45;99753.09;;;5.83;100.00
9905;BME280;4991;43.566;27.820;2022-10-16T05:20:11;99761.88;;;5.95;100.00
9905;BME280;4991;43.566;27.820;2022-10-16T05:22:37;99767.34;;;6.00;100.00
9905;BME280;4991;43.566;27.820;2022-10-16T05:25:03;99759.38;;;6.10;100.00
9905;BME280;4991;43.566;27.820;2022-10-16T05:27:29;99761.53;;;6.08;100.00
9905;BME280;4991;43.566;27.820;2022-10-16T05:29:55;99770.25;;;6.15;100.00
9905;BME280;4991;43.566;27.820;2022-10-16T05:32:20;99775.19;;;6.18;100.00
9905;BME280;4991;43.566;27.820;2022-10-16T05:34:46;99784.75;;;6.26;100.00
9905;BME280;4991;43.566;27.820;2022-10-16T05:37:12;99775.59;;;6.32;100.00
9905;BME280;4991;43.566;27.820;2022-10-16T05:39:40;99782.22;;;6.41;100.00
9905;BME280;4991;43.566;27.820;2022-10-16T05:42:06;99776.56;;;6.42;100.00
9905;BME280;4991;43.566;27.820;2022-10-16T05:44:32;99784.16;;;6.45;100.00
9905;BME280;4991;43.566;27.820;2022-10-16T05:46:58;99793.78;;;6.58;100.00
9905;BME280;4991;43.566;27.820;2022-10-16T05:49:23;99790.53;;;6.56;100.00
9905;BME280;4991;43.566;27.820;2022-10-16T05:51:49;99794.66;;;6.64;100.00
9905;BME280;4991;43.566;27.820;2022-10-16T05:54:14;99793.44;;;6.76;100.00
9905;BME280;4991;43.566;27.820;2022-10-16T05:56:40;99795.13;;;6.82;100.00
9905;BME280;4991;43.566;27.820;2022-10-16T05:59:06;99803.88;;;6.89;100.00
9905;BME280;4991;43.566;27.820;2022-10-16T06:01:32;99809.66;;;6.98;100.00
9905;BME280;4991;43.566;27.820;2022-10-16T06:03:58;99801.84;;;7.01;100.00
9905;BME280;4991;43.566;27.820;2022-10-16T06:06:26;99804.88;;;7.10;100.00
9905;BME280;4991;43.566;27.820;2022-10-16T06:08:54;99812.25;;;7.14;100.00
9905;BME280;4991;43.566;27.820;2022-10-16T06:11:22;99804.75;;;7.26;100.00
9905;BME280;4991;43.566;27.820;2022-10-16T06:13:53;99809.16;;;7.32;100.00
9905;BME280;4991;43.566;27.820;2022-10-16T06:16:19;99816.84;;;7.45;100.00
9905;BME280;4991;43.566;27.820;2022-10-16T06:18:46;99809.63;;;7.56;100.00
9905;BME280;4991;43.566;27.820;2022-10-16T06:21:17;99819.75;;;7.70;100.00
9905;BME280;4991;43.566;27.820;2022-10-16T06:23:43;99823.88;;;7.78;100.00
9905;BME280;4991;43.566;27.820;2022-10-16T06:26:13;99822.63;;;7.91;100.00
9905;BME280;4991;43.566;27.820;2022-10-16T06:28:39;99828.41;;;8.04;100.00
9905;BME280;4991;43.566;27.820;2022-10-16T06:31:07;99844.19;;;8.12;100.00
9905;BME280;4991;43.566;27.820;2022-10-16T06:33:33;99833.66;;;8.21;100.00
9905;BME280;4991;43.566;27.820;2022-10-16T06:36:13;99837.53;;;8.30;100.00
9905;BME280;4991;43.566;27.820;2022-10-16T06:38:41;99837.06;;;8.48;100.00
9905;BME280;4991;43.566;27.820;2022-10-16T06:41:07;99837.13;;;8.58;100.00
9905;BME280;4991;43.566;27.820;2022-10-16T06:43:34;99834.72;;;8.66;100.00
9905;BME280;4991;43.566;27.820;2022-10-16T06:46:05;99844.25;;;8.79;100.00
9905;BME280;4991;43.566;27.820;2022-10-16T06:48:33;99841.53;;;8.84;100.00
9905;BME280;4991;43.566;27.820;2022-10-16T06:51:07;99844.06;;;9.05;100.00
9905;BME280;4991;43.566;27.820;2022-10-16T06:53:36;99845.75;;;9.22;100.00
9905;BME280;4991;43.566;27.820;2022-10-16T06:56:19;99847.09;;;9.29;100.00
9905;BME280;4991;43.566;27.820;2022-10-16T06:58:45;99852.28;;;9.41;100.00
9905;BME280;4991;43.566;27.820;2022-10-16T07:01:12;99849.00;;;9.59;100.00
9905;BME280;4991;43.566;27.820;2022-10-16T07:03:40;99845.22;;;9.65;100.00
9905;BME280;4991;43.566;27.820;2022-10-16T07:06:09;99855.28;;;9.84;100.00
9905;BME280;4991;43.566;27.820;2022-10-16T07:08:39;99859.09;;;10.08;100.00
9905;BME280;4991;43.566;27.820;2022-10-16T07:11:08;99859.59;;;10.25;100.00
9905;BME280;4991;43.566;27.820;2022-10-16T07:13:38;99852.50;;;10.45;100.00
9905;BME280;4991;43.566;27.820;2022-10-16T07:16:12;99851.34;;;10.56;100.00
9905;BME280;4991;43.566;27.820;2022-10-16T07:18:38;99862.47;;;10.74;100.00
9905;BME280;4991;43.566;27.820;2022-10-16T07:21:24;99862.94;;;10.86;100.00
9905;BME280;4991;43.566;27.820;2022-10-16T07:23:51;99866.72;;;10.95;100.00
9905;BME280;4991;43.566;27.820;2022-10-16T07:26:17;99863.41;;;10.98;100.00
9905;BME280;4991;43.566;27.820;2022-10-16T07:28:45;99858.19;;;11.07;100.00
9905;BME280;4991;43.566;27.820;2022-10-16T07:31:13;99859.47;;;11.19;100.00
9905;BME280;4991;43.566;27.820;2022-10-16T07:33:41;99869.53;;;11.29;100.00
9905;BME280;4991;43.566;27.820;2022-10-16T07:36:11;99868.03;;;11.46;100.00
9905;BME280;4991;43.566;27.820;2022-10-16T07:38:36;99864.13;;;11.57;100.00
9905;BME280;4991;43.566;27.820;2022-10-16T07:41:06;99858.66;;;11.57;100.00
9905;BME280;4991;43.566;27.820;2022-10-16T07:43:34;99843.66;;;11.60;100.00
9905;BME280;4991;43.566;27.820;2022-10-16T07:46:01;99853.16;;;11.67;100.00
9905;BME280;4991;43.566;27.820;2022-10-16T07:48:30;99851.97;;;11.84;100.00
9905;BME280;4991;43.566;27.820;2022-10-16T07:51:03;99864.13;;;11.96;100.00
9905;BME280;4991;43.566;27.820;2022-10-16T07:53:30;99859.72;;;12.00;100.00
9905;BME280;4991;43.566;27.820;2022-10-16T07:56:03;99859.97;;;12.04;100.00
9905;BME280;4991;43.566;27.820;2022-10-16T07:58:31;99858.84;;;12.05;100.00
9905;BME280;4991;43.566;27.820;2022-10-16T08:00:57;99860.09;;;12.17;100.00
9905;BME280;4991;43.566;27.820;2022-10-16T08:03:24;99865.09;;;12.34;100.00
9905;BME280;4991;43.566;27.820;2022-10-16T08:05:50;99860.72;;;12.38;100.00
9905;BME280;4991;43.566;27.820;2022-10-16T08:08:17;99879.63;;;12.58;100.00
9905;BME280;4991;43.566;27.820;2022-10-16T08:10:43;99874.31;;;12.66;100.00
9905;BME280;4991;43.566;27.820;2022-10-16T08:13:10;99866.06;;;12.71;100.00
9905;BME280;4991;43.566;27.820;2022-10-16T08:15:36;99868.56;;;12.68;100.00
9905;BME280;4991;43.566;27.820;2022-10-16T08:18:04;99870.06;;;12.79;100.00
9905;BME280;4991;43.566;27.820;2022-10-16T08:20:31;99861.34;;;12.77;100.00
9905;BME280;4991;43.566;27.820;2022-10-16T08:23:00;99869.72;;;12.85;100.00
9905;BME280;4991;43.566;27.820;2022-10-16T08:25:26;99877.91;;;12.85;100.00
9905;BME280;4991;43.566;27.820;2022-10-16T08:27:52;99878.66;;;12.91;100.00
9905;BME280;4991;43.566;27.820;2022-10-16T08:30:20;99868.19;;;12.98;100.00
9905;BME280;4991;43.566;27.820;2022-10-16T08:32:46;99865.28;;;13.13;100.00
9905;BME280;4991;43.566;27.820;2022-10-16T08:35:13;99862.41;;;13.42;100.00
9905;BME280;4991;43.566;27.820;2022-10-16T08:37:38;99873.63;;;13.59;100.00
9905;BME280;4991;43.566;27.820;2022-10-16T08:40:06;99864.75;;;13.67;100.00
9905;BME280;4991;43.566;27.820;2022-10-16T08:42:45;99870.97;;;13.72;100.00
9905;BME280;4991;43.566;27.820;2022-10-16T08:50:39;99866.94;;;14.15;100.00
9905;BME280;4991;43.566;27.820;2022-10-16T08:53:06;99865.06;;;14.30;100.00
9905;BME280;4991;43.566;27.820;2022-10-16T08:55:46;99869.00;;;14.23;100.00
9905;BME280;4991;43.566;27.820;2022-10-16T08:58:26;99871.59;;;14.47;100.00
9905;BME280;4991;43.566;27.820;2022-10-16T09:01:00;99869.84;;;14.51;100.00
9905;BME280;4991;43.566;27.820;2022-10-16T09:08:54;99868.44;;;16.85;100.00
9905;BME280;4991;43.566;27.820;2022-10-16T09:11:45;99867.56;;;18.72;100.00
9905;BME280;4991;43.566;27.820;2022-10-16T09:16:47;99877.88;;;20.24;100.00
9905;BME280;4991;43.566;27.820;2022-10-16T09:19:24;99885.34;;;19.70;96.34
9905;BME280;4991;43.566;27.820;2022-10-16T09:21:54;99887.97;;;19.67;99.58
9905;BME280;4991;43.566;27.820;2022-10-16T09:24:21;99872.84;;;19.85;97.04
9905;BME280;4991;43.566;27.820;2022-10-16T09:26:49;99875.66;;;18.22;100.00
9905;BME280;4991;43.566;27.820;2022-10-16T09:29:20;99871.19;;;19.22;100.00
9905;BME280;4991;43.566;27.820;2022-10-16T09:31:47;99881.59;;;20.07;98.02
9905;BME280;4991;43.566;27.820;2022-10-16T09:36:47;99859.44;;;23.37;71.32
9905;BME280;4991;43.566;27.820;2022-10-16T09:39:13;99857.72;;;23.48;66.02
9905;BME280;4991;43.566;27.820;2022-10-16T09:41:44;99861.75;;;21.19;72.73
9905;BME280;4991;43.566;27.820;2022-10-16T09:44:29;99862.06;;;20.69;80.97
9905;BME280;4991;43.566;27.820;2022-10-16T09:47:15;99859.69;;;19.82;87.18
9905;BME280;4991;43.566;27.820;2022-10-16T09:50:01;99850.06;;;20.77;85.82
9905;BME280;4991;43.566;27.820;2022-10-16T09:52:30;99846.97;;;21.79;76.82
9905;BME280;4991;43.566;27.820;2022-10-16T09:57:24;99849.88;;;21.58;72.23
9905;BME280;4991;43.566;27.820;2022-10-16T09:59:51;99845.81;;;22.23;67.25
9905;BME280;4991;43.566;27.820;2022-10-16T10:02:20;99846.66;;;22.39;67.42
9905;BME280;4991;43.566;27.820;2022-10-16T10:04:51;99849.13;;;23.22;64.55
9905;BME280;4991;43.566;27.820;2022-10-16T10:07:37;99855.22;;;22.34;64.48
9905;BME280;4991;43.566;27.820;2022-10-16T10:10:06;99864.59;;;20.86;67.79
9905;BME280;4991;43.566;27.820;2022-10-16T10:12:45;99857.25;;;21.78;66.04
9905;BME280;4991;43.566;27.820;2022-10-16T10:15:11;99852.72;;;22.29;64.73
9905;BME280;4991;43.566;27.820;2022-10-16T10:20:34;99859.09;;;23.38;58.83
9905;BME280;4991;43.566;27.820;2022-10-16T10:23:13;99851.53;;;24.11;57.65
9905;BME280;4991;43.566;27.820;2022-10-16T10:26:02;99853.03;;;24.05;53.92
9905;BME280;4991;43.566;27.820;2022-10-16T10:28:44;99845.97;;;22.88;55.69
9905;BME280;4991;43.566;27.820;2022-10-16T10:31:19;99835.66;;;22.89;56.53
9905;BME280;4991;43.566;27.820;2022-10-16T10:41:44;99827.94;;;23.86;53.56
9905;BME280;4991;43.566;27.820;2022-10-16T10:46:56;99826.94;;;25.56;47.33
9905;BME280;4991;43.566;27.820;2022-10-16T11:03:27;99819.63;;;24.96;50.56
9905;BME280;4991;43.566;27.820;2022-10-16T11:06:05;99832.88;;;24.76;49.28
9905;BME280;4991;43.566;27.820;2022-10-16T11:08:42;99831.16;;;25.20;47.22
9905;BME280;4991;43.566;27.820;2022-10-16T11:11:34;99833.59;;;25.48;46.63
9905;BME280;4991;43.566;27.820;2022-10-16T11:14:03;99834.94;;;25.31;44.70
9905;BME280;4991;43.566;27.820;2022-10-16T11:16:36;99838.28;;;24.47;46.89
9905;BME280;4991;43.566;27.820;2022-10-16T11:19:13;99829.25;;;25.51;46.36
9905;BME280;4991;43.566;27.820;2022-10-16T11:24:58;99812.75;;;25.38;45.56
9905;BME280;4991;43.566;27.820;2022-10-16T11:30:23;99815.28;;;26.10;42.37
9905;BME280;4991;43.566;27.820;2022-10-16T11:35:23;99822.50;;;24.32;44.84
9905;BME280;4991;43.566;27.820;2022-10-16T11:37:52;99819.66;;;26.11;41.94
9905;BME280;4991;43.566;27.820;2022-10-16T11:40:31;99811.78;;;25.90;41.83
9905;BME280;4991;43.566;27.820;2022-10-16T11:43:30;99825.13;;;24.89;43.20
9905;BME280;4991;43.566;27.820;2022-10-16T11:46:08;99822.03;;;24.07;44.92
9905;BME280;4991;43.566;27.820;2022-10-16T11:51:15;99821.22;;;24.93;43.61
9905;BME280;4991;43.566;27.820;2022-10-16T11:53:50;99822.69;;;24.65;44.75
9905;BME280;4991;43.566;27.820;2022-10-16T11:56:20;99818.16;;;25.02;43.53
9905;BME280;4991;43.566;27.820;2022-10-16T12:01:42;99810.94;;;24.75;44.38
9905;BME280;4991;43.566;27.820;2022-10-16T12:04:39;99821.75;;;25.28;42.78
9905;BME280;4991;43.566;27.820;2022-10-16T12:07:16;99820.59;;;24.81;42.22
9905;BME280;4991;43.566;27.820;2022-10-16T12:09:44;99822.94;;;25.57;42.97
9905;BME280;4991;43.566;27.820;2022-10-16T12:12:38;99823.81;;;26.27;41.46
9905;BME280;4991;43.566;27.820;2022-10-16T12:17:47;99825.91;;;26.37;39.69
9905;BME280;4991;43.566;27.820;2022-10-16T12:22:49;99835.53;;;26.03;38.34
9905;BME280;4991;43.566;27.820;2022-10-16T12:27:54;99830.34;;;26.42;37.63
9905;BME280;4991;43.566;27.820;2022-10-16T12:30:23;99834.47;;;25.85;39.15
9905;BME280;4991;43.566;27.820;2022-10-16T12:32:55;99842.56;;;25.64;39.28
9905;BME280;4991;43.566;27.820;2022-10-16T12:35:28;99829.63;;;26.92;37.48
9905;BME280;4991;43.566;27.820;2022-10-16T12:38:04;99831.44;;;25.97;39.01
9905;BME280;4991;43.566;27.820;2022-10-16T12:40:33;99834.94;;;27.11;37.06
9905;BME280;4991;43.566;27.820;2022-10-16T12:43:11;99841.31;;;26.21;37.83
9905;BME280;4991;43.566;27.820;2022-10-16T12:45:38;99847.28;;;26.59;36.23
9905;BME280;4991;43.566;27.820;2022-10-16T12:48:19;99842.13;;;25.06;38.53
9905;BME280;4991;43.566;27.820;2022-10-16T12:50:45;99843.13;;;25.21;39.90
9905;BME280;4991;43.566;27.820;2022-10-16T12:53:24;99844.03;;;25.84;38.91
9905;BME280;4991;43.566;27.820;2022-10-16T13:01:04;99851.75;;;25.65;38.68
9905;BME280;4991;43.566;27.820;2022-10-16T13:06:36;99845.63;;;26.55;36.58
9905;BME280;4991;43.566;27.820;2022-10-16T13:27:56;99855.25;;;23.12;42.32
9905;BME280;4991;43.566;27.820;2022-10-16T13:30:38;99852.97;;;23.48;42.37
9905;BME280;4991;43.566;27.820;2022-10-16T13:33:15;99857.56;;;23.25;43.25
9905;BME280;4991;43.566;27.820;2022-10-16T13:35:51;99858.31;;;23.38;43.57
9905;BME280;4991;43.566;27.820;2022-10-16T13:38:19;99854.97;;;23.67;42.95
9905;BME280;4991;43.566;27.820;2022-10-16T13:43:20;99865.28;;;23.66;42.73
9905;BME280;4991;43.566;27.820;2022-10-16T13:46:02;99868.19;;;23.04;43.26
9905;BME280;4991;43.566;27.820;2022-10-16T13:48:29;99866.31;;;23.08;44.18
9905;BME280;4991;43.566;27.820;2022-10-16T13:50:59;99866.13;;;23.01;44.36
9905;BME280;4991;43.566;27.820;2022-10-16T13:53:25;99868.38;;;23.11;43.52
9905;BME280;4991;43.566;27.820;2022-10-16T13:55:50;99874.56;;;23.55;42.93
9905;BME280;4991;43.566;27.820;2022-10-16T13:58:16;99863.63;;;23.81;42.47
9905;BME280;4991;43.566;27.820;2022-10-16T14:01:06;99869.78;;;23.05;42.41
9905;BME280;4991;43.566;27.820;2022-10-16T14:03:41;99861.25;;;23.14;42.37
9905;BME280;4991;43.566;27.820;2022-10-16T14:06:13;99864.72;;;22.76;43.37
9905;BME280;4991;43.566;27.820;2022-10-16T14:08:47;99864.94;;;22.40;44.46
9905;BME280;4991;43.566;27.820;2022-10-16T14:11:20;99867.66;;;22.24;44.79
9905;BME280;4991;43.566;27.820;2022-10-16T14:13:47;99877.22;;;21.84;46.20
9905;BME280;4991;43.566;27.820;2022-10-16T14:16:23;99885.16;;;21.33;48.82
9905;BME280;4991;43.566;27.820;2022-10-16T14:18:57;99887.13;;;21.33;50.25
9905;BME280;4991;43.566;27.820;2022-10-16T14:21:23;99886.31;;;20.84;51.81
9905;BME280;4991;43.566;27.820;2022-10-16T14:23:50;99886.25;;;20.60;52.65
9905;BME280;4991;43.566;27.820;2022-10-16T14:26:19;99891.59;;;20.77;52.50
9905;BME280;4991;43.566;27.820;2022-10-16T14:28:46;99893.44;;;20.85;53.02
9905;BME280;4991;43.566;27.820;2022-10-16T14:31:33;99887.44;;;20.26;56.87
9905;BME280;4991;43.566;27.820;2022-10-16T14:34:01;99896.75;;;20.01;58.11
9905;BME280;4991;43.566;27.820;2022-10-16T14:36:28;99888.50;;;19.81;60.23
9905;BME280;4991;43.566;27.820;2022-10-16T14:39:03;99891.31;;;19.52;62.41
9905;BME280;4991;43.566;27.820;2022-10-16T14:41:31;99885.72;;;19.10;66.42
9905;BME280;4991;43.566;27.820;2022-10-16T14:44:03;99885.63;;;18.52;73.28
9905;BME280;4991;43.566;27.820;2022-10-16T14:46:37;99888.16;;;18.02;79.00
9905;BME280;4991;43.566;27.820;2022-10-16T14:49:23;99890.13;;;17.85;84.87
9905;BME280;4991;43.566;27.820;2022-10-16T14:51:49;99891.03;;;17.38;89.05
9905;BME280;4991;43.566;27.820;2022-10-16T14:54:17;99899.09;;;17.09;93.23
9905;BME280;4991;43.566;27.820;2022-10-16T14:59:33;99908.75;;;16.58;100.00
9905;BME280;4991;43.566;27.820;2022-10-16T15:04:46;99906.09;;;16.23;100.00
9905;BME280;4991;43.566;27.820;2022-10-16T15:07:11;99897.28;;;15.68;100.00
9905;BME280;4991;43.566;27.820;2022-10-16T15:09:37;99905.13;;;15.61;100.00
9905;BME280;4991;43.566;27.820;2022-10-16T15:12:03;99897.72;;;15.62;100.00